createdAt,value
2019-05-15T00:01:28.891Z,0.50
2019-05-15T00:03:33.668Z,0.50
2019-05-15T00:05:39.212Z,0.50
2019-05-15T00:07:44.245Z,0.40
2019-05-15T00:09:49.302Z,0.47
2019-05-15T00:11:54.344Z,0.40
2019-05-15T00:13:59.111Z,0.40
2019-05-15T00:16:08.725Z,0.50
2019-05-15T00:18:13.642Z,0.70
2019-05-15T00:20:20.236Z,0.60
2019-05-15T00:22:24.874Z,0.40
2019-05-15T00:24:29.791Z,0.40
2019-05-15T00:26:39.188Z,0.40
2019-05-15T00:28:44.200Z,0.60
2019-05-15T00:30:52.347Z,0.40
2019-05-15T00:32:58.832Z,0.40
2019-05-15T00:35:04.400Z,0.50
2019-05-15T00:37:10.282Z,0.60
2019-05-15T00:39:15.218Z,0.40
2019-05-15T00:41:20.894Z,0.40
2019-05-15T00:43:25.680Z,0.40
2019-05-15T00:45:30.590Z,0.70
2019-05-15T00:47:35.347Z,0.40
2019-05-15T00:49:43.567Z,0.57
2019-05-15T00:51:48.825Z,0.35
2019-05-15T00:53:53.790Z,0.70
2019-05-15T00:55:58.663Z,0.40
2019-05-15T00:58:03.435Z,0.50
2019-05-15T01:00:09.983Z,0.40
2019-05-15T01:02:14.738Z,0.42
2019-05-15T01:04:19.514Z,0.45
2019-05-15T01:06:24.279Z,0.30
2019-05-15T01:08:29.031Z,0.50
2019-05-15T01:10:33.818Z,0.50
2019-05-15T01:12:38.585Z,0.42
2019-05-15T01:14:43.400Z,0.47
2019-05-15T01:16:48.989Z,0.40
2019-05-15T01:18:53.954Z,0.40
2019-05-15T01:20:58.819Z,0.50
2019-05-15T01:23:03.685Z,0.50
2019-05-15T01:25:08.880Z,0.40
2019-05-15T01:27:13.902Z,0.40
2019-05-15T01:29:18.675Z,0.50
2019-05-15T01:31:23.482Z,0.50
2019-05-15T01:33:28.484Z,0.60
2019-05-15T01:35:33.265Z,0.40
2019-05-15T01:37:39.158Z,0.40
2019-05-15T01:39:44.111Z,0.40
2019-05-15T01:41:49.620Z,0.40
2019-05-15T01:43:54.635Z,0.40
2019-05-15T01:45:59.379Z,0.40
2019-05-15T01:48:04.153Z,0.50
2019-05-15T01:50:09.514Z,0.40
2019-05-15T01:52:14.394Z,0.40
2019-05-15T01:54:20.303Z,0.40
2019-05-15T01:56:25.295Z,0.40
2019-05-15T01:58:30.072Z,0.40
2019-05-15T02:00:34.926Z,0.30
2019-05-15T02:02:39.736Z,0.40
2019-05-15T02:04:44.478Z,0.40
2019-05-15T02:06:49.278Z,0.30
2019-05-15T02:08:54.058Z,0.50
2019-05-15T02:10:59.067Z,0.55
2019-05-15T02:13:03.901Z,0.40
2019-05-15T02:15:08.822Z,0.40
2019-05-15T02:17:13.655Z,0.30
2019-05-15T02:19:19.451Z,0.50
2019-05-15T02:21:24.430Z,0.40
2019-05-15T02:23:29.190Z,0.40
2019-05-15T02:25:33.977Z,0.40
2019-05-15T02:27:39.504Z,0.40
2019-05-15T02:29:44.493Z,0.45
2019-05-15T02:31:50.382Z,0.40
2019-05-15T02:33:58.782Z,0.40
2019-05-15T02:36:01.882Z,0.50
2019-05-15T02:38:10.326Z,0.40
2019-05-15T02:40:13.164Z,0.42
2019-05-15T02:42:19.230Z,0.50
2019-05-15T02:44:24.464Z,0.60
2019-05-15T02:46:30.039Z,0.50
2019-05-15T02:48:34.995Z,0.40
2019-05-15T02:50:39.753Z,0.55
2019-05-15T02:52:45.676Z,0.40
2019-05-15T02:54:50.615Z,0.42
2019-05-15T02:56:55.378Z,0.40
2019-05-15T02:59:00.233Z,0.50
2019-05-15T03:01:05.087Z,0.40
2019-05-15T03:03:09.953Z,0.40
2019-05-15T03:05:14.782Z,0.40
2019-05-15T03:07:19.599Z,0.50
2019-05-15T03:09:24.434Z,0.40
2019-05-15T03:11:29.688Z,0.50
2019-05-15T03:13:34.531Z,0.40
2019-05-15T03:15:40.588Z,0.40
2019-05-15T03:17:45.834Z,0.40
2019-05-15T03:19:50.577Z,0.40
2019-05-15T03:21:55.381Z,0.35
2019-05-15T03:24:00.150Z,0.50
2019-05-15T03:26:04.957Z,0.45
2019-05-15T03:28:10.776Z,0.30
2019-05-15T03:30:21.070Z,0.40
2019-05-15T03:32:32.275Z,0.57
2019-05-15T03:34:37.438Z,0.47
2019-05-15T03:36:35.860Z,0.40
2019-05-15T03:38:40.676Z,0.40
2019-05-15T03:40:45.431Z,0.30
2019-05-15T03:42:50.178Z,0.40
2019-05-15T03:44:55.045Z,0.60
2019-05-15T03:46:59.901Z,0.40
2019-05-15T03:49:04.682Z,0.40
2019-05-15T03:51:09.567Z,0.55
2019-05-15T03:53:14.394Z,0.40
2019-05-15T03:55:19.152Z,0.50
2019-05-15T03:57:23.948Z,0.30
2019-05-15T03:59:29.649Z,0.40
2019-05-15T04:01:39.740Z,0.53
2019-05-15T04:03:40.956Z,0.60
2019-05-15T04:05:45.795Z,0.50
2019-05-15T04:07:52.187Z,0.50
2019-05-15T04:09:58.764Z,0.55
2019-05-15T04:12:03.382Z,0.40
2019-05-15T04:14:10.136Z,0.40
2019-05-15T04:16:14.578Z,0.45
2019-05-15T04:18:20.024Z,0.50
2019-05-15T04:20:24.970Z,0.50
2019-05-15T04:22:29.727Z,0.40
2019-05-15T04:24:34.602Z,0.40
2019-05-15T04:26:40.640Z,0.40
2019-05-15T04:28:49.415Z,0.40
2019-05-15T04:30:53.404Z,0.40
2019-05-15T04:32:59.501Z,0.40
2019-05-15T04:35:04.858Z,0.60
2019-05-15T04:37:09.741Z,0.50
2019-05-15T04:39:14.483Z,0.50
2019-05-15T04:41:19.917Z,0.40
2019-05-15T04:43:25.175Z,0.45
2019-05-15T04:45:34.638Z,0.50
2019-05-15T04:47:39.283Z,0.60
2019-05-15T04:49:42.875Z,0.65
2019-05-15T04:51:49.679Z,0.50
2019-05-15T04:53:54.165Z,0.50
2019-05-15T04:55:59.740Z,0.50
2019-05-15T04:58:04.718Z,0.50
2019-05-15T05:00:10.221Z,0.40
2019-05-15T05:02:24.187Z,0.75
2019-05-15T05:04:21.764Z,0.45
2019-05-15T05:06:29.247Z,0.50
2019-05-15T05:08:32.982Z,0.50
2019-05-15T05:10:39.605Z,0.50
2019-05-15T05:12:44.314Z,0.40
2019-05-15T05:14:49.171Z,0.40
2019-05-15T05:16:53.935Z,0.68
2019-05-15T05:18:59.499Z,0.55
2019-05-15T05:21:04.725Z,0.50
2019-05-15T05:23:09.486Z,0.42
2019-05-15T05:25:14.299Z,0.50
2019-05-15T05:27:19.184Z,0.50
2019-05-15T05:29:23.928Z,0.40
2019-05-15T05:31:29.590Z,0.40
2019-05-15T05:33:34.667Z,0.30
2019-05-15T05:35:39.419Z,1.45
2019-05-15T05:37:44.174Z,0.45
2019-05-15T05:39:48.934Z,0.40
2019-05-15T05:41:53.728Z,0.40
2019-05-15T05:43:58.787Z,0.40
2019-05-15T05:46:03.793Z,0.40
2019-05-15T05:48:09.132Z,0.40
2019-05-15T05:50:18.159Z,0.50
2019-05-15T05:52:22.058Z,0.62
2019-05-15T05:54:28.803Z,0.42
2019-05-15T05:56:37.699Z,0.30
2019-05-15T05:58:42.583Z,0.60
2019-05-15T06:00:48.931Z,0.40
2019-05-15T06:02:54.203Z,0.50
2019-05-15T06:04:58.946Z,0.40
2019-05-15T06:07:09.938Z,0.40
2019-05-15T06:09:10.486Z,0.40
2019-05-15T06:11:15.321Z,0.50
2019-05-15T06:13:20.122Z,0.53
2019-05-15T06:15:24.899Z,0.60
2019-05-15T06:17:29.716Z,0.50
2019-05-15T06:19:34.511Z,0.60
2019-05-15T06:21:53.390Z,0.50
2019-05-15T06:23:48.376Z,0.50
2019-05-15T06:25:52.285Z,0.40
2019-05-15T06:27:58.298Z,0.40
2019-05-15T06:30:03.594Z,0.40
2019-05-15T06:32:08.346Z,0.37
2019-05-15T06:34:13.133Z,0.40
2019-05-15T06:36:18.074Z,0.50
2019-05-15T06:38:23.133Z,0.40
2019-05-15T06:40:28.987Z,0.45
2019-05-15T06:42:33.814Z,0.40
2019-05-15T06:44:38.903Z,0.70
2019-05-15T06:46:43.895Z,0.53
2019-05-15T06:48:48.798Z,0.57
2019-05-15T06:50:53.692Z,0.50
2019-05-15T06:52:58.786Z,0.50
2019-05-15T06:55:03.751Z,0.40
2019-05-15T06:57:09.220Z,0.70
2019-05-15T06:59:14.314Z,0.60
2019-05-15T07:01:19.168Z,0.53
2019-05-15T07:03:25.821Z,0.60
2019-05-15T07:05:30.481Z,0.53
2019-05-15T07:07:35.303Z,0.47
2019-05-15T07:09:40.175Z,0.60
2019-05-15T07:11:44.962Z,0.60
2019-05-15T07:13:49.734Z,1.00
2019-05-15T07:15:54.508Z,0.60
2019-05-15T07:17:59.349Z,0.40
2019-05-15T07:20:04.494Z,0.50
2019-05-15T07:22:09.536Z,0.50
2019-05-15T07:24:14.562Z,0.62
2019-05-15T07:26:19.321Z,0.42
2019-05-15T07:28:24.106Z,0.50
2019-05-15T07:30:28.949Z,0.80
2019-05-15T07:32:33.709Z,0.53
2019-05-15T07:34:38.492Z,0.47
2019-05-15T07:36:43.287Z,0.70
2019-05-15T07:38:48.527Z,0.70
2019-05-15T07:40:59.710Z,0.60
2019-05-15T07:43:00.150Z,0.60
2019-05-15T07:45:08.119Z,1.77
2019-05-15T07:47:12.167Z,0.50
2019-05-15T07:49:18.143Z,1.02
2019-05-15T07:51:23.195Z,0.53
2019-05-15T07:53:28.875Z,0.85
2019-05-15T07:55:33.864Z,0.80
2019-05-15T07:57:39.494Z,0.70
2019-05-15T07:59:44.575Z,0.68
2019-05-15T08:01:49.438Z,0.60
2019-05-15T08:03:59.717Z,0.60
2019-05-15T08:06:03.118Z,0.50
2019-05-15T08:08:08.800Z,0.62
2019-05-15T08:10:14.085Z,0.65
2019-05-15T08:12:19.231Z,0.75
2019-05-15T08:14:24.406Z,0.50
2019-05-15T08:16:29.164Z,0.80
2019-05-15T08:18:34.014Z,0.70
2019-05-15T08:20:38.771Z,0.70
2019-05-15T08:22:45.881Z,0.60
2019-05-15T08:24:50.084Z,0.70
2019-05-15T08:26:54.902Z,0.70
2019-05-15T08:28:59.713Z,0.50
2019-05-15T08:31:06.646Z,0.50
2019-05-15T08:33:11.038Z,0.70
2019-05-15T08:35:18.905Z,0.70
2019-05-15T08:37:22.335Z,0.70
2019-05-15T08:39:28.505Z,1.15
2019-05-15T08:41:33.595Z,0.98
2019-05-15T08:43:38.471Z,0.80
2019-05-15T08:45:43.682Z,0.75
2019-05-15T08:47:49.258Z,0.82
2019-05-15T08:49:54.302Z,0.57
2019-05-15T08:51:59.130Z,1.40
2019-05-15T08:54:03.872Z,0.60
2019-05-15T08:56:08.751Z,0.55
2019-05-15T08:58:14.187Z,0.82
2019-05-15T09:00:19.155Z,0.70
2019-05-15T09:02:23.923Z,0.45
2019-05-15T09:04:34.522Z,0.98
2019-05-15T09:06:35.141Z,1.50
2019-05-15T09:08:39.894Z,1.10
2019-05-15T09:10:45.402Z,1.57
2019-05-15T09:12:50.431Z,1.25
2019-05-15T09:14:55.318Z,0.70
2019-05-15T09:17:00.086Z,0.80
2019-05-15T09:19:04.934Z,1.90
2019-05-15T09:21:09.707Z,0.80
2019-05-15T09:23:14.451Z,0.62
2019-05-15T09:25:19.530Z,0.62
2019-05-15T09:27:24.466Z,0.60
2019-05-15T09:29:29.290Z,0.50
2019-05-15T09:31:34.130Z,0.70
2019-05-15T09:33:39.035Z,0.70
2019-05-15T09:35:43.875Z,0.60
2019-05-15T09:37:48.925Z,0.98
2019-05-15T09:39:53.814Z,0.70
2019-05-15T09:41:58.565Z,0.60
2019-05-15T09:44:03.462Z,1.32
2019-05-15T09:46:10.426Z,0.85
2019-05-15T09:48:14.915Z,0.72
2019-05-15T09:50:19.742Z,0.70
2019-05-15T09:52:24.567Z,0.72
2019-05-15T09:54:29.594Z,0.57
2019-05-15T09:56:34.402Z,0.68
2019-05-15T09:58:39.156Z,0.70
2019-05-15T10:00:43.931Z,0.60
2019-05-15T10:02:48.850Z,0.60
2019-05-15T10:05:06.062Z,0.70
2019-05-15T10:07:00.211Z,0.90
2019-05-15T10:09:08.847Z,0.50
2019-05-15T10:11:12.831Z,0.80
2019-05-15T10:13:18.466Z,0.40
2019-05-15T10:15:23.531Z,0.60
2019-05-15T10:17:29.134Z,0.60
2019-05-15T10:19:33.975Z,0.60
2019-05-15T10:21:40.078Z,0.55
2019-05-15T10:23:45.286Z,0.60
2019-05-15T10:25:50.043Z,0.40
2019-05-15T10:27:54.894Z,0.60
2019-05-15T10:29:59.756Z,0.62
2019-05-15T10:32:04.542Z,0.75
2019-05-15T10:34:09.401Z,0.82
2019-05-15T10:36:14.138Z,0.85
2019-05-15T10:38:19.573Z,0.50
2019-05-15T10:40:24.579Z,0.65
2019-05-15T10:42:29.410Z,0.53
2019-05-15T10:44:34.247Z,0.50
2019-05-15T10:46:39.001Z,0.60
2019-05-15T10:48:43.746Z,0.90
2019-05-15T10:50:48.618Z,0.75
2019-05-15T10:52:53.480Z,0.82
2019-05-15T10:55:00.900Z,0.72
2019-05-15T10:57:05.392Z,0.75
2019-05-15T10:59:10.906Z,0.80
2019-05-15T11:01:15.683Z,0.90
2019-05-15T11:03:20.451Z,1.00
2019-05-15T11:05:38.442Z,0.75
2019-05-15T11:07:31.790Z,0.88
2019-05-15T11:09:37.500Z,0.70
2019-05-15T11:11:43.095Z,0.75
2019-05-15T11:13:47.955Z,0.60
2019-05-15T11:15:52.697Z,1.05
2019-05-15T11:17:58.477Z,0.60
2019-05-15T11:20:03.670Z,0.95
2019-05-15T11:22:09.091Z,0.95
2019-05-15T11:24:14.002Z,1.10
2019-05-15T11:26:21.835Z,0.95
2019-05-15T11:28:31.670Z,0.90
2019-05-15T11:30:33.407Z,2.00
2019-05-15T11:32:39.039Z,1.10
2019-05-15T11:34:44.429Z,0.70
2019-05-15T11:36:52.487Z,1.45
2019-05-15T11:38:57.257Z,0.70
2019-05-15T11:41:04.555Z,1.20
2019-05-15T11:43:08.668Z,0.78
2019-05-15T11:45:14.116Z,0.93
2019-05-15T11:47:18.934Z,0.53
2019-05-15T11:49:23.738Z,0.65
2019-05-15T11:51:28.993Z,0.50
2019-05-15T11:53:34.078Z,0.50
2019-05-15T11:55:38.907Z,0.80
2019-05-15T11:57:47.701Z,0.80
2019-05-15T11:59:55.317Z,0.85
2019-05-15T12:01:58.018Z,0.85
2019-05-15T12:04:03.086Z,0.60
2019-05-15T12:06:18.011Z,0.70
2019-05-15T12:08:14.354Z,0.50
2019-05-15T12:10:19.155Z,0.60
2019-05-15T12:12:23.958Z,0.70
2019-05-15T12:14:29.693Z,0.80
2019-05-15T12:16:36.397Z,0.70
2019-05-15T12:18:41.451Z,0.62
2019-05-15T12:20:48.332Z,0.68
2019-05-15T12:22:52.685Z,1.05
2019-05-15T12:25:00.458Z,0.70
2019-05-15T12:27:13.936Z,1.12
2019-05-15T12:29:10.481Z,0.50
2019-05-15T12:31:15.298Z,0.60
2019-05-15T12:33:20.091Z,0.60
2019-05-15T12:35:24.951Z,0.70
2019-05-15T12:37:29.702Z,0.82
2019-05-15T12:39:34.542Z,0.75
2019-05-15T13:00:38.330Z,0.93
2019-05-15T13:02:43.281Z,0.90
2019-05-15T13:04:48.026Z,0.75
2019-05-15T13:07:11.570Z,0.95
2019-05-15T13:08:59.569Z,0.60
2019-05-15T13:11:09.482Z,1.00
2019-05-15T13:13:11.182Z,1.12
2019-05-15T13:15:18.773Z,1.17
2019-05-15T13:17:22.522Z,0.65
2019-05-15T13:19:28.420Z,0.93
2019-05-15T13:21:33.644Z,0.80
2019-05-15T13:23:38.832Z,1.10
2019-05-15T13:25:43.749Z,0.75
2019-05-15T13:27:48.919Z,1.75
2019-05-15T13:29:53.975Z,1.50
2019-05-15T13:31:58.746Z,1.10
2019-05-15T13:34:08.939Z,0.78
2019-05-15T13:36:13.693Z,0.80
2019-05-15T13:38:18.526Z,0.70
2019-05-15T13:40:34.972Z,0.78
2019-05-15T13:42:29.746Z,0.68
2019-05-15T13:44:34.515Z,0.70
2019-05-15T13:46:39.284Z,0.70
2019-05-15T13:48:44.055Z,0.80
2019-05-15T13:50:48.879Z,0.85
2019-05-15T13:52:53.716Z,1.05
2019-05-15T13:54:58.577Z,1.05
2019-05-15T13:57:03.436Z,1.10
2019-05-15T13:59:08.232Z,0.98
2019-05-15T14:01:13.035Z,0.60
2019-05-15T14:03:17.815Z,0.60
2019-05-15T14:05:22.644Z,0.80
2019-05-15T14:07:33.066Z,1.00
2019-05-15T14:09:34.581Z,0.90
2019-05-15T14:11:39.720Z,0.70
2019-05-15T14:13:44.472Z,0.60
2019-05-15T14:15:49.405Z,1.17
2019-05-15T14:17:54.234Z,0.80
2019-05-15T14:19:58.987Z,1.32
2019-05-15T14:22:03.771Z,0.82
2019-05-15T14:24:08.967Z,0.70
2019-05-15T14:26:20.012Z,0.65
2019-05-15T14:28:20.478Z,0.90
2019-05-15T14:30:25.226Z,0.98
2019-05-15T14:32:37.718Z,0.90
2019-05-15T14:34:38.059Z,0.75
2019-05-15T14:36:43.173Z,1.22
2019-05-15T14:38:48.618Z,1.00
2019-05-15T14:40:53.623Z,1.00
2019-05-15T14:42:59.398Z,1.05
2019-05-15T14:45:04.568Z,0.80
2019-05-15T14:47:09.374Z,1.17
2019-05-15T14:49:14.147Z,0.80
2019-05-15T14:51:19.377Z,0.70
2019-05-15T14:53:24.234Z,1.00
2019-05-15T14:55:33.160Z,0.93
2019-05-15T14:57:38.870Z,1.00
2019-05-15T14:59:42.115Z,0.90
2019-05-15T15:01:48.726Z,1.00
2019-05-15T15:03:53.415Z,0.78
2019-05-15T15:05:58.460Z,0.50
2019-05-15T15:08:17.197Z,0.85
2019-05-15T15:10:09.986Z,1.57
2019-05-15T15:12:14.751Z,0.78
2019-05-15T15:14:19.510Z,0.82
2019-05-15T15:16:24.293Z,1.40
2019-05-15T15:18:29.085Z,0.65
2019-05-15T15:20:33.846Z,0.75
2019-05-15T15:22:39.469Z,2.50
2019-05-15T15:24:44.767Z,1.80
2019-05-15T15:26:49.842Z,3.40
2019-05-15T15:28:54.605Z,2.60
2019-05-15T15:30:59.390Z,2.00
2019-05-15T15:33:04.237Z,1.52
2019-05-15T15:35:09.816Z,0.90
2019-05-15T15:37:14.911Z,0.95
2019-05-15T15:39:19.660Z,1.00
2019-05-15T15:41:24.519Z,1.82
2019-05-15T15:43:29.274Z,1.20
2019-05-15T15:45:34.055Z,1.00
2019-05-15T15:47:39.220Z,1.17
2019-05-15T15:49:44.054Z,1.20
2019-05-15T15:51:48.893Z,1.10
2019-05-15T15:53:53.711Z,1.70
2019-05-15T15:55:58.504Z,1.30
2019-05-15T15:58:03.386Z,1.50
2019-05-15T16:00:08.983Z,0.72
2019-05-15T16:02:13.768Z,0.93
2019-05-15T16:04:18.788Z,1.00
2019-05-15T16:06:23.563Z,1.60
2019-05-15T16:08:28.661Z,0.95
2019-05-15T16:10:33.567Z,1.75
2019-05-15T16:12:39.006Z,1.85
2019-05-15T16:14:44.102Z,1.70
2019-05-15T16:16:48.897Z,1.60
2019-05-15T16:18:53.678Z,1.40
2019-05-15T16:20:58.727Z,1.72
2019-05-15T16:23:03.691Z,1.25
2019-05-15T16:25:09.981Z,1.52
2019-05-15T16:27:15.234Z,1.50
2019-05-15T16:29:20.247Z,1.85
2019-05-15T16:31:25.239Z,1.87
2019-05-15T16:33:30.271Z,1.57
2019-05-15T16:35:35.037Z,1.85
2019-05-15T16:37:39.806Z,1.90
2019-05-15T16:39:44.649Z,0.78
2019-05-15T16:41:49.494Z,0.85
2019-05-15T16:43:54.326Z,1.70
2019-05-15T16:45:59.162Z,1.42
2019-05-15T16:48:03.938Z,1.20
2019-05-15T16:50:09.059Z,1.20
2019-05-15T16:52:13.877Z,0.90
2019-05-15T16:54:18.960Z,0.80
2019-05-15T16:56:23.791Z,1.50
2019-05-15T16:58:29.631Z,1.20
2019-05-15T17:00:34.587Z,1.25
2019-05-15T17:02:40.535Z,1.10
2019-05-15T17:04:45.595Z,1.95
2019-05-15T17:06:50.371Z,1.70
2019-05-15T17:08:55.262Z,1.67
2019-05-15T17:11:00.115Z,1.35
2019-05-15T17:13:04.899Z,0.98
2019-05-15T17:15:10.090Z,1.55
2019-05-15T17:17:14.863Z,1.32
2019-05-15T17:19:19.717Z,1.60
2019-05-15T17:21:24.574Z,1.20
2019-05-15T17:23:29.354Z,1.15
2019-05-15T17:25:34.159Z,1.15
2019-05-15T17:27:39.111Z,1.35
2019-05-15T17:29:44.129Z,1.25
2019-05-15T17:31:49.247Z,1.42
2019-05-15T17:33:54.018Z,2.22
2019-05-15T17:35:58.799Z,2.00
2019-05-15T17:38:03.571Z,1.70
2019-05-15T17:40:09.193Z,1.80
2019-05-15T17:42:14.054Z,2.62
2019-05-15T17:44:19.206Z,2.22
2019-05-15T17:46:25.515Z,2.22
2019-05-15T17:48:31.840Z,2.17
2019-05-15T17:50:45.882Z,1.57
2019-05-15T17:52:43.511Z,2.42
2019-05-15T17:54:49.156Z,2.70
2019-05-15T17:56:54.810Z,2.40
2019-05-15T17:59:00.297Z,2.80
2019-05-15T18:01:05.502Z,2.70
2019-05-15T18:03:10.822Z,2.20
2019-05-15T18:05:15.924Z,3.00
2019-05-15T18:07:22.719Z,2.30
2019-05-15T18:09:29.949Z,2.12
2019-05-15T18:11:35.142Z,2.67
2019-05-15T18:13:40.021Z,2.30
2019-05-15T18:15:44.873Z,2.65
2019-05-15T18:17:49.716Z,2.58
2019-05-15T18:19:54.592Z,2.37
2019-05-15T18:21:59.533Z,2.30
2019-05-15T18:24:04.589Z,2.40
2019-05-15T18:26:09.449Z,2.85
2019-05-15T18:28:14.198Z,2.40
2019-05-15T18:30:19.665Z,2.05
2019-05-15T18:32:24.450Z,2.17
2019-05-15T18:34:29.871Z,2.15
2019-05-15T18:36:34.741Z,2.45
2019-05-15T18:38:39.635Z,0.60
2019-05-15T18:40:44.454Z,0.70
2019-05-15T18:42:51.130Z,1.00
2019-05-15T18:44:58.253Z,1.10
2019-05-15T18:47:02.447Z,0.70
2019-05-15T18:49:07.248Z,0.50
2019-05-15T18:51:12.036Z,0.85
2019-05-15T18:53:17.497Z,0.60
2019-05-15T18:55:22.438Z,0.80
2019-05-15T18:57:27.383Z,0.80
2019-05-15T18:59:33.118Z,0.80
2019-05-15T19:01:39.315Z,0.75
2019-05-15T19:03:44.466Z,0.50
2019-05-15T19:05:49.227Z,0.55
2019-05-15T19:07:54.029Z,0.65
2019-05-15T19:09:58.979Z,0.50
2019-05-15T19:12:04.391Z,0.70
2019-05-15T19:14:09.351Z,0.70
2019-05-15T19:16:14.205Z,0.80
2019-05-15T19:18:19.154Z,0.70
2019-05-15T19:20:23.997Z,0.75
2019-05-15T19:22:28.806Z,0.80
2019-05-15T19:24:33.867Z,0.75
2019-05-15T19:26:38.638Z,1.10
2019-05-15T19:28:43.382Z,1.37
2019-05-15T19:30:48.282Z,1.30
2019-05-15T19:32:53.062Z,1.47
2019-05-15T19:34:58.905Z,1.40
2019-05-15T19:37:03.958Z,1.00
2019-05-15T19:39:08.724Z,2.35
2019-05-15T19:41:13.497Z,1.98
2019-05-15T19:43:18.372Z,1.20
2019-05-15T19:45:23.277Z,1.30
2019-05-15T19:47:28.178Z,1.67
2019-05-15T19:49:33.298Z,2.00
2019-05-15T19:51:38.310Z,1.20
2019-05-15T19:53:43.339Z,1.00
2019-05-15T19:55:48.584Z,1.47
2019-05-15T19:57:53.555Z,1.00
2019-05-15T19:59:58.648Z,1.10
2019-05-15T20:02:05.813Z,1.20
2019-05-15T20:04:11.172Z,1.40
2019-05-15T20:06:15.970Z,1.60
2019-05-15T20:08:20.866Z,2.15
2019-05-15T20:10:25.819Z,1.65
2019-05-15T20:12:30.705Z,1.98
2019-05-15T20:14:35.482Z,1.60
2019-05-15T20:16:42.290Z,1.77
2019-05-15T20:18:47.909Z,1.82
2019-05-15T20:20:53.102Z,1.80
2019-05-15T20:23:00.148Z,1.45
2019-05-15T20:25:04.662Z,1.57
2019-05-15T20:27:09.540Z,2.45
2019-05-15T20:29:14.473Z,2.27
2019-05-15T20:31:19.345Z,1.50
2019-05-15T20:33:24.103Z,2.02
2019-05-15T20:35:28.957Z,2.27
2019-05-15T20:37:33.786Z,2.08
2019-05-15T20:39:38.748Z,1.80
2019-05-15T20:41:43.703Z,2.20
2019-05-15T20:43:51.015Z,2.15
2019-05-15T20:45:57.737Z,2.10
2019-05-15T20:48:04.015Z,1.75
2019-05-15T20:50:09.690Z,2.10
2019-05-15T20:52:14.859Z,2.10
2019-05-15T20:54:19.695Z,1.85
2019-05-15T20:56:24.739Z,1.65
2019-05-15T20:58:29.602Z,2.17
2019-05-15T21:00:34.427Z,2.12
2019-05-15T21:02:39.385Z,2.05
2019-05-15T21:04:44.178Z,2.47
2019-05-15T21:06:48.912Z,2.55
2019-05-15T21:08:53.666Z,2.40
2019-05-15T21:10:59.033Z,2.10
2019-05-15T21:13:04.294Z,2.30
2019-05-15T21:15:09.627Z,2.72
2019-05-15T21:17:14.382Z,2.45
2019-05-15T21:19:19.244Z,2.50
2019-05-15T21:21:24.014Z,2.40
2019-05-15T21:23:28.778Z,1.95
2019-05-15T21:25:33.638Z,2.33
2019-05-15T21:27:42.356Z,2.30
2019-05-15T21:29:44.993Z,2.85
2019-05-15T21:31:49.858Z,2.30
2019-05-15T21:33:54.629Z,1.98
2019-05-15T21:35:59.502Z,2.85
2019-05-15T21:38:04.347Z,3.00
2019-05-15T21:40:09.462Z,2.02
2019-05-15T21:42:14.547Z,3.70
2019-05-15T21:44:19.315Z,2.80
2019-05-15T21:46:24.105Z,2.60
2019-05-15T21:48:28.952Z,2.70
2019-05-15T21:50:34.107Z,2.80
2019-05-15T21:52:39.369Z,2.40
2019-05-15T21:54:44.306Z,2.58
2019-05-15T21:56:50.521Z,3.00
2019-05-15T21:58:55.397Z,3.10
2019-05-15T22:01:00.576Z,3.45
2019-05-15T22:03:05.337Z,3.50
2019-05-15T22:05:10.294Z,3.30
2019-05-15T22:07:15.114Z,2.90
2019-05-15T22:09:21.050Z,2.17
2019-05-15T22:11:29.289Z,2.65
2019-05-15T22:13:32.623Z,3.10
2019-05-15T22:15:37.565Z,2.92
2019-05-15T22:17:42.322Z,2.98
2019-05-15T22:19:49.087Z,2.40
2019-05-15T22:21:53.566Z,2.50
2019-05-15T22:24:00.357Z,2.87
2019-05-15T22:26:05.037Z,3.15
2019-05-15T22:28:09.799Z,2.40
2019-05-15T22:30:14.998Z,2.70
2019-05-15T22:32:19.778Z,2.22
2019-05-15T22:34:24.569Z,2.77
2019-05-15T22:36:29.506Z,3.08
2019-05-15T22:38:34.246Z,2.10
2019-05-15T22:40:39.085Z,2.62
2019-05-15T22:42:44.026Z,2.20
2019-05-15T22:44:48.802Z,2.50
2019-05-15T22:46:53.866Z,1.95
2019-05-15T22:48:59.144Z,2.22
2019-05-15T22:51:04.064Z,1.60
2019-05-15T22:53:09.379Z,1.65
2019-05-15T22:55:14.228Z,0.95
2019-05-15T22:57:19.003Z,0.60
2019-05-15T22:59:23.758Z,0.40
2019-05-15T23:01:28.642Z,0.40
2019-05-15T23:03:33.582Z,0.60
2019-05-15T23:05:38.398Z,0.50
2019-05-15T23:07:43.222Z,0.60
2019-05-15T23:09:48.987Z,0.40
2019-05-15T23:11:53.954Z,0.50
2019-05-15T23:13:58.898Z,0.40
2019-05-15T23:16:03.736Z,0.65
2019-05-15T23:18:08.686Z,0.50
2019-05-15T23:20:13.691Z,0.53
2019-05-15T23:22:18.695Z,0.42
2019-05-15T23:24:23.990Z,0.50
2019-05-15T23:26:28.787Z,0.50
2019-05-15T23:28:33.646Z,1.05
2019-05-15T23:30:38.429Z,1.42
2019-05-15T23:32:43.246Z,1.07
2019-05-15T23:34:49.112Z,1.10
2019-05-15T23:36:54.066Z,1.57
2019-05-15T23:38:58.853Z,2.10
2019-05-15T23:41:03.686Z,1.77
2019-05-15T23:43:08.964Z,1.20
2019-05-15T23:45:13.939Z,1.57
2019-05-15T23:47:18.687Z,1.25
2019-05-15T23:49:23.453Z,1.90
2019-05-15T23:51:28.235Z,1.35
2019-05-15T23:53:33.013Z,1.85
2019-05-15T23:55:37.785Z,1.40
2019-05-15T23:57:42.539Z,1.60
2019-05-15T23:59:47.815Z,1.07
